sensor_id;sensor_type;location;lat;lon;timestamp;P1;durP1;ratioP1;P2;durP2;ratioP2
5559;SDS011;2803;47.916;8.074;2023-04-30T00:00:15;9.20;;;5.97;;
5559;SDS011;2803;47.916;8.074;2023-04-30T00:02:42;9.37;;;5.80;;
5559;SDS011;2803;47.916;8.074;2023-04-30T00:05:08;9.03;;;6.23;;
5559;SDS011;2803;47.916;8.074;2023-04-30T00:07:35;8.70;;;5.53;;
5559;SDS011;2803;47.916;8.074;2023-04-30T00:10:06;8.30;;;5.50;;
5559;SDS011;2803;47.916;8.074;2023-04-30T00:12:34;7.03;;;5.33;;
5559;SDS011;2803;47.916;8.074;2023-04-30T00:15:01;8.10;;;4.40;;
5559;SDS011;2803;47.916;8.074;2023-04-30T00:17:28;6.20;;;4.67;;
5559;SDS011;2803;47.916;8.074;2023-04-30T00:19:55;8.20;;;5.20;;
5559;SDS011;2803;47.916;8.074;2023-04-30T00:22:21;7.80;;;4.70;;
5559;SDS011;2803;47.916;8.074;2023-04-30T00:24:48;9.13;;;5.63;;
5559;SDS011;2803;47.916;8.074;2023-04-30T00:27:15;8.90;;;4.67;;
5559;SDS011;2803;47.916;8.074;2023-04-30T00:29:42;7.20;;;5.00;;
5559;SDS011;2803;47.916;8.074;2023-04-30T00:32:09;10.07;;;5.57;;
5559;SDS011;2803;47.916;8.074;2023-04-30T00:34:36;8.80;;;5.30;;
5559;SDS011;2803;47.916;8.074;2023-04-30T00:37:02;9.30;;;5.33;;
5559;SDS011;2803;47.916;8.074;2023-04-30T00:39:29;8.23;;;5.60;;
5559;SDS011;2803;47.916;8.074;2023-04-30T00:41:55;9.80;;;6.10;;
5559;SDS011;2803;47.916;8.074;2023-04-30T00:44:22;9.77;;;5.60;;
5559;SDS011;2803;47.916;8.074;2023-04-30T00:46:50;7.03;;;4.90;;
5559;SDS011;2803;47.916;8.074;2023-04-30T00:49:16;16.10;;;5.90;;
5559;SDS011;2803;47.916;8.074;2023-04-30T00:51:43;9.27;;;5.93;;
5559;SDS011;2803;47.916;8.074;2023-04-30T00:54:10;9.77;;;6.20;;
5559;SDS011;2803;47.916;8.074;2023-04-30T00:56:38;13.67;;;6.27;;
5559;SDS011;2803;47.916;8.074;2023-04-30T00:59:04;12.60;;;6.10;;
5559;SDS011;2803;47.916;8.074;2023-04-30T01:01:31;8.03;;;5.30;;
5559;SDS011;2803;47.916;8.074;2023-04-30T01:03:59;10.17;;;7.00;;
5559;SDS011;2803;47.916;8.074;2023-04-30T01:06:26;10.00;;;7.30;;
5559;SDS011;2803;47.916;8.074;2023-04-30T01:08:53;15.30;;;6.50;;
5559;SDS011;2803;47.916;8.074;2023-04-30T01:11:23;13.80;;;6.70;;
5559;SDS011;2803;47.916;8.074;2023-04-30T01:13:58;10.07;;;6.40;;
5559;SDS011;2803;47.916;8.074;2023-04-30T01:16:34;14.03;;;8.20;;
5559;SDS011;2803;47.916;8.074;2023-04-30T01:19:08;13.83;;;7.70;;
5559;SDS011;2803;47.916;8.074;2023-04-30T01:21:40;15.90;;;7.50;;
5559;SDS011;2803;47.916;8.074;2023-04-30T01:24:14;14.37;;;8.30;;
5559;SDS011;2803;47.916;8.074;2023-04-30T01:26:58;11.33;;;7.10;;
5559;SDS011;2803;47.916;8.074;2023-04-30T01:29:33;14.00;;;7.60;;
5559;SDS011;2803;47.916;8.074;2023-04-30T01:32:01;13.30;;;7.10;;
5559;SDS011;2803;47.916;8.074;2023-04-30T01:34:27;14.90;;;7.77;;
5559;SDS011;2803;47.916;8.074;2023-04-30T01:36:59;13.73;;;8.20;;
5559;SDS011;2803;47.916;8.074;2023-04-30T01:39:41;13.23;;;7.70;;
5559;SDS011;2803;47.916;8.074;2023-04-30T01:42:18;10.27;;;6.63;;
5559;SDS011;2803;47.916;8.074;2023-04-30T01:44:57;11.33;;;6.90;;
5559;SDS011;2803;47.916;8.074;2023-04-30T01:47:36;13.70;;;6.33;;
5559;SDS011;2803;47.916;8.074;2023-04-30T01:50:09;11.90;;;6.67;;
5559;SDS011;2803;47.916;8.074;2023-04-30T01:52:45;13.87;;;8.23;;
5559;SDS011;2803;47.916;8.074;2023-04-30T01:55:13;10.27;;;6.83;;
5559;SDS011;2803;47.916;8.074;2023-04-30T01:57:47;11.13;;;7.40;;
5559;SDS011;2803;47.916;8.074;2023-04-30T02:00:20;10.10;;;6.47;;
5559;SDS011;2803;47.916;8.074;2023-04-30T02:02:47;8.30;;;5.77;;
5559;SDS011;2803;47.916;8.074;2023-04-30T02:05:13;11.80;;;7.47;;
5559;SDS011;2803;47.916;8.074;2023-04-30T02:07:40;8.40;;;6.13;;
5559;SDS011;2803;47.916;8.074;2023-04-30T02:10:09;13.70;;;6.77;;
5559;SDS011;2803;47.916;8.074;2023-04-30T02:12:36;9.37;;;6.87;;
5559;SDS011;2803;47.916;8.074;2023-04-30T02:15:03;10.77;;;6.90;;
5559;SDS011;2803;47.916;8.074;2023-04-30T02:17:32;10.53;;;7.07;;
5559;SDS011;2803;47.916;8.074;2023-04-30T02:19:59;10.17;;;6.67;;
5559;SDS011;2803;47.916;8.074;2023-04-30T02:22:26;12.43;;;6.60;;
5559;SDS011;2803;47.916;8.074;2023-04-30T02:24:52;12.43;;;6.33;;
5559;SDS011;2803;47.916;8.074;2023-04-30T02:27:19;12.33;;;5.73;;
5559;SDS011;2803;47.916;8.074;2023-04-30T02:29:47;12.63;;;7.40;;
5559;SDS011;2803;47.916;8.074;2023-04-30T02:32:14;12.13;;;6.27;;
5559;SDS011;2803;47.916;8.074;2023-04-30T02:34:42;12.07;;;6.57;;
5559;SDS011;2803;47.916;8.074;2023-04-30T02:37:09;10.07;;;6.63;;
5559;SDS011;2803;47.916;8.074;2023-04-30T02:39:35;11.00;;;6.93;;
5559;SDS011;2803;47.916;8.074;2023-04-30T02:42:02;9.73;;;6.50;;
5559;SDS011;2803;47.916;8.074;2023-04-30T02:44:31;8.93;;;6.33;;
5559;SDS011;2803;47.916;8.074;2023-04-30T02:46:58;9.60;;;6.73;;
5559;SDS011;2803;47.916;8.074;2023-04-30T02:49:25;10.63;;;6.60;;
5559;SDS011;2803;47.916;8.074;2023-04-30T02:51:53;11.90;;;7.50;;
5559;SDS011;2803;47.916;8.074;2023-04-30T02:54:19;11.97;;;6.23;;
5559;SDS011;2803;47.916;8.074;2023-04-30T02:56:46;11.93;;;7.20;;
5559;SDS011;2803;47.916;8.074;2023-04-30T02:59:13;9.80;;;6.47;;
5559;SDS011;2803;47.916;8.074;2023-04-30T03:01:39;12.70;;;6.87;;
5559;SDS011;2803;47.916;8.074;2023-04-30T03:04:06;13.27;;;6.70;;
5559;SDS011;2803;47.916;8.074;2023-04-30T03:06:33;9.90;;;6.30;;
5559;SDS011;2803;47.916;8.074;2023-04-30T03:09:01;15.13;;;7.10;;
5559;SDS011;2803;47.916;8.074;2023-04-30T03:11:27;11.63;;;6.70;;
5559;SDS011;2803;47.916;8.074;2023-04-30T03:13:54;10.60;;;5.87;;
5559;SDS011;2803;47.916;8.074;2023-04-30T03:16:20;9.90;;;5.77;;
5559;SDS011;2803;47.916;8.074;2023-04-30T03:18:47;10.07;;;5.97;;
5559;SDS011;2803;47.916;8.074;2023-04-30T03:21:15;11.50;;;6.77;;
5559;SDS011;2803;47.916;8.074;2023-04-30T03:23:41;9.67;;;6.43;;
5559;SDS011;2803;47.916;8.074;2023-04-30T03:26:09;9.37;;;6.20;;
5559;SDS011;2803;47.916;8.074;2023-04-30T03:28:36;10.50;;;5.93;;
5559;SDS011;2803;47.916;8.074;2023-04-30T03:31:02;10.23;;;6.47;;
5559;SDS011;2803;47.916;8.074;2023-04-30T03:33:30;11.10;;;5.90;;
5559;SDS011;2803;47.916;8.074;2023-04-30T03:35:56;9.67;;;6.07;;
5559;SDS011;2803;47.916;8.074;2023-04-30T03:38:23;12.30;;;6.10;;
5559;SDS011;2803;47.916;8.074;2023-04-30T03:40:50;13.87;;;5.03;;
5559;SDS011;2803;47.916;8.074;2023-04-30T03:43:18;9.30;;;5.80;;
5559;SDS011;2803;47.916;8.074;2023-04-30T03:45:45;6.70;;;4.47;;
5559;SDS011;2803;47.916;8.074;2023-04-30T03:48:11;9.10;;;5.20;;
5559;SDS011;2803;47.916;8.074;2023-04-30T03:50:38;8.63;;;5.23;;
5559;SDS011;2803;47.916;8.074;2023-04-30T03:53:05;8.00;;;5.20;;
5559;SDS011;2803;47.916;8.074;2023-04-30T03:55:31;7.67;;;4.70;;
5559;SDS011;2803;47.916;8.074;2023-04-30T03:57:58;7.13;;;4.63;;
5559;SDS011;2803;47.916;8.074;2023-04-30T04:00:26;8.13;;;5.03;;
5559;SDS011;2803;47.916;8.074;2023-04-30T04:02:53;6.10;;;4.53;;
5559;SDS011;2803;47.916;8.074;2023-04-30T04:05:20;7.20;;;4.27;;
5559;SDS011;2803;47.916;8.074;2023-04-30T04:07:46;6.67;;;4.73;;
5559;SDS011;2803;47.916;8.074;2023-04-30T04:10:13;9.00;;;4.50;;
5559;SDS011;2803;47.916;8.074;2023-04-30T04:12:39;6.80;;;4.90;;
5559;SDS011;2803;47.916;8.074;2023-04-30T04:15:06;7.47;;;4.33;;
5559;SDS011;2803;47.916;8.074;2023-04-30T04:17:35;7.77;;;4.33;;
5559;SDS011;2803;47.916;8.074;2023-04-30T04:20:01;7.20;;;4.37;;
5559;SDS011;2803;47.916;8.074;2023-04-30T04:22:30;6.83;;;3.97;;
5559;SDS011;2803;47.916;8.074;2023-04-30T04:24:56;5.83;;;3.77;;
5559;SDS011;2803;47.916;8.074;2023-04-30T04:27:23;7.10;;;5.00;;
5559;SDS011;2803;47.916;8.074;2023-04-30T04:29:50;8.33;;;5.10;;
5559;SDS011;2803;47.916;8.074;2023-04-30T04:32:16;8.43;;;4.90;;
5559;SDS011;2803;47.916;8.074;2023-04-30T04:34:44;8.63;;;5.00;;
5559;SDS011;2803;47.916;8.074;2023-04-30T04:37:11;6.03;;;4.30;;
5559;SDS011;2803;47.916;8.074;2023-04-30T04:39:37;6.53;;;4.57;;
5559;SDS011;2803;47.916;8.074;2023-04-30T04:42:04;7.50;;;4.40;;
5559;SDS011;2803;47.916;8.074;2023-04-30T04:44:31;7.43;;;4.90;;
5559;SDS011;2803;47.916;8.074;2023-04-30T04:46:57;10.13;;;5.27;;
5559;SDS011;2803;47.916;8.074;2023-04-30T04:49:24;8.80;;;5.20;;
5559;SDS011;2803;47.916;8.074;2023-04-30T04:51:52;6.80;;;4.93;;
5559;SDS011;2803;47.916;8.074;2023-04-30T04:54:19;11.60;;;6.30;;
5559;SDS011;2803;47.916;8.074;2023-04-30T04:56:46;6.30;;;4.80;;
5559;SDS011;2803;47.916;8.074;2023-04-30T04:59:12;7.27;;;4.37;;
5559;SDS011;2803;47.916;8.074;2023-04-30T05:01:39;9.50;;;4.80;;
5559;SDS011;2803;47.916;8.074;2023-04-30T05:04:06;10.87;;;5.50;;
5559;SDS011;2803;47.916;8.074;2023-04-30T05:06:33;7.83;;;5.00;;
5559;SDS011;2803;47.916;8.074;2023-04-30T05:09:01;9.03;;;5.67;;
5559;SDS011;2803;47.916;8.074;2023-04-30T05:11:30;9.37;;;5.53;;
5559;SDS011;2803;47.916;8.074;2023-04-30T05:13:57;10.43;;;4.83;;
5559;SDS011;2803;47.916;8.074;2023-04-30T05:16:23;10.40;;;5.13;;
5559;SDS011;2803;47.916;8.074;2023-04-30T05:18:50;8.20;;;5.03;;
5559;SDS011;2803;47.916;8.074;2023-04-30T05:21:17;8.23;;;4.97;;
5559;SDS011;2803;47.916;8.074;2023-04-30T05:23:43;6.73;;;4.37;;
5559;SDS011;2803;47.916;8.074;2023-04-30T05:26:11;9.30;;;5.73;;
5559;SDS011;2803;47.916;8.074;2023-04-30T05:28:38;9.77;;;4.80;;
5559;SDS011;2803;47.916;8.074;2023-04-30T05:31:04;9.90;;;5.23;;
5559;SDS011;2803;47.916;8.074;2023-04-30T05:33:31;6.40;;;4.60;;
5559;SDS011;2803;47.916;8.074;2023-04-30T05:35:57;8.97;;;5.00;;
5559;SDS011;2803;47.916;8.074;2023-04-30T05:38:24;10.93;;;4.30;;
5559;SDS011;2803;47.916;8.074;2023-04-30T05:40:51;7.00;;;4.57;;
5559;SDS011;2803;47.916;8.074;2023-04-30T05:43:19;9.93;;;4.37;;
5559;SDS011;2803;47.916;8.074;2023-04-30T05:45:46;9.20;;;5.10;;
5559;SDS011;2803;47.916;8.074;2023-04-30T05:48:13;8.87;;;5.00;;
5559;SDS011;2803;47.916;8.074;2023-04-30T05:50:39;9.60;;;4.67;;
5559;SDS011;2803;47.916;8.074;2023-04-30T05:53:06;6.47;;;4.77;;
5559;SDS011;2803;47.916;8.074;2023-04-30T05:55:33;10.43;;;4.73;;
5559;SDS011;2803;47.916;8.074;2023-04-30T05:58:00;7.77;;;5.17;;
5559;SDS011;2803;47.916;8.074;2023-04-30T06:00:28;10.07;;;5.17;;
5559;SDS011;2803;47.916;8.074;2023-04-30T06:02:55;6.80;;;4.70;;
5559;SDS011;2803;47.916;8.074;2023-04-30T06:05:21;7.13;;;4.60;;
5559;SDS011;2803;47.916;8.074;2023-04-30T06:07:48;9.43;;;5.50;;
5559;SDS011;2803;47.916;8.074;2023-04-30T06:10:14;9.00;;;6.00;;
5559;SDS011;2803;47.916;8.074;2023-04-30T06:12:41;7.53;;;4.97;;
5559;SDS011;2803;47.916;8.074;2023-04-30T06:15:08;6.70;;;4.67;;
5559;SDS011;2803;47.916;8.074;2023-04-30T06:17:36;8.63;;;5.03;;
5559;SDS011;2803;47.916;8.074;2023-04-30T06:20:03;6.40;;;4.10;;
5559;SDS011;2803;47.916;8.074;2023-04-30T06:22:31;6.77;;;4.90;;
5559;SDS011;2803;47.916;8.074;2023-04-30T06:24:58;8.97;;;4.60;;
5559;SDS011;2803;47.916;8.074;2023-04-30T06:27:25;5.13;;;3.87;;
5559;SDS011;2803;47.916;8.074;2023-04-30T06:29:52;9.33;;;5.00;;
5559;SDS011;2803;47.916;8.074;2023-04-30T06:32:19;5.87;;;4.20;;
5559;SDS011;2803;47.916;8.074;2023-04-30T06:34:47;7.33;;;4.57;;
5559;SDS011;2803;47.916;8.074;2023-04-30T06:37:13;11.90;;;4.50;;
5559;SDS011;2803;47.916;8.074;2023-04-30T06:39:40;6.83;;;4.80;;
5559;SDS011;2803;47.916;8.074;2023-04-30T06:42:06;8.57;;;4.67;;
5559;SDS011;2803;47.916;8.074;2023-04-30T06:44:33;7.17;;;4.40;;
5559;SDS011;2803;47.916;8.074;2023-04-30T06:46:59;6.50;;;4.70;;
5559;SDS011;2803;47.916;8.074;2023-04-30T06:49:26;7.00;;;4.53;;
5559;SDS011;2803;47.916;8.074;2023-04-30T06:51:54;8.80;;;5.07;;
5559;SDS011;2803;47.916;8.074;2023-04-30T06:54:22;6.40;;;4.63;;
5559;SDS011;2803;47.916;8.074;2023-04-30T06:56:50;8.03;;;4.90;;
5559;SDS011;2803;47.916;8.074;2023-04-30T06:59:17;8.17;;;4.67;;
5559;SDS011;2803;47.916;8.074;2023-04-30T07:01:44;8.83;;;5.30;;
5559;SDS011;2803;47.916;8.074;2023-04-30T07:04:11;10.50;;;4.47;;
5559;SDS011;2803;47.916;8.074;2023-04-30T07:06:38;6.63;;;4.77;;
5559;SDS011;2803;47.916;8.074;2023-04-30T07:09:05;6.27;;;3.53;;
5559;SDS011;2803;47.916;8.074;2023-04-30T07:11:32;6.03;;;4.03;;
5559;SDS011;2803;47.916;8.074;2023-04-30T07:13:59;6.67;;;4.40;;
5559;SDS011;2803;47.916;8.074;2023-04-30T07:16:26;6.30;;;4.40;;
5559;SDS011;2803;47.916;8.074;2023-04-30T07:18:52;6.13;;;3.70;;
5559;SDS011;2803;47.916;8.074;2023-04-30T07:21:19;7.07;;;4.30;;
5559;SDS011;2803;47.916;8.074;2023-04-30T07:23:46;5.40;;;3.97;;
5559;SDS011;2803;47.916;8.074;2023-04-30T07:26:16;5.80;;;4.07;;
5559;SDS011;2803;47.916;8.074;2023-04-30T07:28:45;5.50;;;3.37;;
5559;SDS011;2803;47.916;8.074;2023-04-30T07:31:12;6.10;;;3.87;;
5559;SDS011;2803;47.916;8.074;2023-04-30T07:33:38;9.57;;;4.63;;
5559;SDS011;2803;47.916;8.074;2023-04-30T07:36:05;8.17;;;3.67;;
5559;SDS011;2803;47.916;8.074;2023-04-30T07:38:31;5.23;;;4.20;;
5559;SDS011;2803;47.916;8.074;2023-04-30T07:40:58;7.57;;;3.83;;
5559;SDS011;2803;47.916;8.074;2023-04-30T07:43:27;9.43;;;4.10;;
5559;SDS011;2803;47.916;8.074;2023-04-30T07:45:53;6.13;;;4.17;;
5559;SDS011;2803;47.916;8.074;2023-04-30T07:48:20;6.17;;;4.67;;
5559;SDS011;2803;47.916;8.074;2023-04-30T07:50:48;5.40;;;3.80;;
5559;SDS011;2803;47.916;8.074;2023-04-30T07:53:14;5.80;;;3.83;;
5559;SDS011;2803;47.916;8.074;2023-04-30T07:55:41;4.07;;;3.10;;
5559;SDS011;2803;47.916;8.074;2023-04-30T07:58:07;4.60;;;3.30;;
5559;SDS011;2803;47.916;8.074;2023-04-30T08:00:35;5.07;;;3.70;;
5559;SDS011;2803;47.916;8.074;2023-04-30T08:03:02;3.97;;;3.10;;
5559;SDS011;2803;47.916;8.074;2023-04-30T08:05:28;4.37;;;3.13;;
5559;SDS011;2803;47.916;8.074;2023-04-30T08:07:55;5.43;;;3.60;;
5559;SDS011;2803;47.916;8.074;2023-04-30T08:10:22;6.03;;;3.50;;
5559;SDS011;2803;47.916;8.074;2023-04-30T08:12:49;6.20;;;3.70;;
5559;SDS011;2803;47.916;8.074;2023-04-30T08:15:17;6.50;;;4.40;;
5559;SDS011;2803;47.916;8.074;2023-04-30T08:17:47;6.60;;;3.20;;
5559;SDS011;2803;47.916;8.074;2023-04-30T08:20:14;5.33;;;3.30;;
5559;SDS011;2803;47.916;8.074;2023-04-30T08:22:41;5.47;;;3.57;;
5559;SDS011;2803;47.916;8.074;2023-04-30T08:25:09;5.87;;;3.80;;
5559;SDS011;2803;47.916;8.074;2023-04-30T08:27:35;3.70;;;2.90;;
5559;SDS011;2803;47.916;8.074;2023-04-30T08:30:02;4.60;;;3.50;;
5559;SDS011;2803;47.916;8.074;2023-04-30T08:32:30;8.03;;;4.00;;
5559;SDS011;2803;47.916;8.074;2023-04-30T08:35:01;4.43;;;2.97;;
5559;SDS011;2803;47.916;8.074;2023-04-30T08:37:27;4.83;;;3.20;;
5559;SDS011;2803;47.916;8.074;2023-04-30T08:39:54;5.20;;;3.50;;
5559;SDS011;2803;47.916;8.074;2023-04-30T08:42:21;4.70;;;3.50;;
5559;SDS011;2803;47.916;8.074;2023-04-30T08:44:51;3.90;;;3.00;;
5559;SDS011;2803;47.916;8.074;2023-04-30T08:47:17;4.53;;;3.20;;
5559;SDS011;2803;47.916;8.074;2023-04-30T08:49:46;4.27;;;3.20;;
5559;SDS011;2803;47.916;8.074;2023-04-30T08:52:15;5.57;;;3.83;;
5559;SDS011;2803;47.916;8.074;2023-04-30T08:54:43;4.33;;;2.87;;
5559;SDS011;2803;47.916;8.074;2023-04-30T08:57:12;9.90;;;3.60;;
5559;SDS011;2803;47.916;8.074;2023-04-30T08:59:39;6.33;;;2.90;;
5559;SDS011;2803;47.916;8.074;2023-04-30T09:02:06;4.17;;;3.10;;
5559;SDS011;2803;47.916;8.074;2023-04-30T09:04:34;5.70;;;3.60;;
5559;SDS011;2803;47.916;8.074;2023-04-30T09:07:00;4.00;;;3.13;;
5559;SDS011;2803;47.916;8.074;2023-04-30T09:09:35;5.97;;;3.30;;
5559;SDS011;2803;47.916;8.074;2023-04-30T09:12:12;4.57;;;2.80;;
5559;SDS011;2803;47.916;8.074;2023-04-30T09:14:41;4.63;;;2.70;;
5559;SDS011;2803;47.916;8.074;2023-04-30T09:17:24;4.33;;;2.60;;
5559;SDS011;2803;47.916;8.074;2023-04-30T09:19:51;3.10;;;2.40;;
5559;SDS011;2803;47.916;8.074;2023-04-30T09:22:18;3.97;;;2.83;;
5559;SDS011;2803;47.916;8.074;2023-04-30T09:24:47;4.50;;;2.90;;
5559;SDS011;2803;47.916;8.074;2023-04-30T09:27:15;5.33;;;2.90;;
5559;SDS011;2803;47.916;8.074;2023-04-30T09:29:42;3.23;;;2.40;;
5559;SDS011;2803;47.916;8.074;2023-04-30T09:32:10;3.90;;;2.47;;
5559;SDS011;2803;47.916;8.074;2023-04-30T09:34:37;2.80;;;1.97;;
5559;SDS011;2803;47.916;8.074;2023-04-30T09:37:04;3.47;;;2.40;;
5559;SDS011;2803;47.916;8.074;2023-04-30T09:39:31;3.70;;;2.90;;
5559;SDS011;2803;47.916;8.074;2023-04-30T09:42:07;2.50;;;2.20;;
5559;SDS011;2803;47.916;8.074;2023-04-30T09:44:35;4.10;;;2.50;;
5559;SDS011;2803;47.916;8.074;2023-04-30T09:47:03;3.70;;;2.20;;
5559;SDS011;2803;47.916;8.074;2023-04-30T09:49:30;2.50;;;2.30;;
5559;SDS011;2803;47.916;8.074;2023-04-30T09:51:57;2.63;;;2.20;;
5559;SDS011;2803;47.916;8.074;2023-04-30T09:54:25;2.43;;;2.17;;
5559;SDS011;2803;47.916;8.074;2023-04-30T09:56:56;4.53;;;2.30;;
5559;SDS011;2803;47.916;8.074;2023-04-30T09:59:27;2.70;;;2.17;;
5559;SDS011;2803;47.916;8.074;2023-04-30T10:01:56;4.30;;;2.13;;
5559;SDS011;2803;47.916;8.074;2023-04-30T10:04:25;3.20;;;2.20;;
5559;SDS011;2803;47.916;8.074;2023-04-30T10:06:53;7.23;;;2.00;;
5559;SDS011;2803;47.916;8.074;2023-04-30T10:09:22;8.30;;;2.50;;
5559;SDS011;2803;47.916;8.074;2023-04-30T10:11:51;2.57;;;2.20;;
5559;SDS011;2803;47.916;8.074;2023-04-30T10:14:19;4.03;;;2.67;;
5559;SDS011;2803;47.916;8.074;2023-04-30T10:16:50;2.57;;;2.37;;
5559;SDS011;2803;47.916;8.074;2023-04-30T10:19:21;4.10;;;2.63;;
5559;SDS011;2803;47.916;8.074;2023-04-30T10:21:49;3.57;;;2.30;;
5559;SDS011;2803;47.916;8.074;2023-04-30T10:24:17;3.83;;;2.80;;
5559;SDS011;2803;47.916;8.074;2023-04-30T10:26:45;3.53;;;2.50;;
5559;SDS011;2803;47.916;8.074;2023-04-30T10:29:14;2.40;;;2.20;;
5559;SDS011;2803;47.916;8.074;2023-04-30T10:31:42;5.13;;;2.50;;
5559;SDS011;2803;47.916;8.074;2023-04-30T10:34:13;3.53;;;2.30;;
5559;SDS011;2803;47.916;8.074;2023-04-30T10:36:47;2.37;;;1.90;;
5559;SDS011;2803;47.916;8.074;2023-04-30T10:39:19;2.47;;;2.20;;
5559;SDS011;2803;47.916;8.074;2023-04-30T10:41:47;2.93;;;2.27;;
5559;SDS011;2803;47.916;8.074;2023-04-30T10:44:14;5.50;;;2.37;;
5559;SDS011;2803;47.916;8.074;2023-04-30T10:46:46;8.50;;;2.47;;
5559;SDS011;2803;47.916;8.074;2023-04-30T10:49:14;2.53;;;2.33;;
5559;SDS011;2803;47.916;8.074;2023-04-30T10:51:50;4.60;;;2.80;;
5559;SDS011;2803;47.916;8.074;2023-04-30T10:54:21;3.37;;;2.40;;
5559;SDS011;2803;47.916;8.074;2023-04-30T10:56:50;3.00;;;2.20;;
5559;SDS011;2803;47.916;8.074;2023-04-30T10:59:17;4.57;;;2.10;;
5559;SDS011;2803;47.916;8.074;2023-04-30T11:04:27;5.27;;;2.23;;
5559;SDS011;2803;47.916;8.074;2023-04-30T11:06:55;2.23;;;2.03;;
5559;SDS011;2803;47.916;8.074;2023-04-30T11:09:35;2.20;;;2.00;;
5559;SDS011;2803;47.916;8.074;2023-04-30T11:12:04;3.00;;;2.10;;
5559;SDS011;2803;47.916;8.074;2023-04-30T11:14:38;6.43;;;2.20;;
5559;SDS011;2803;47.916;8.074;2023-04-30T11:17:07;3.13;;;2.60;;
5559;SDS011;2803;47.916;8.074;2023-04-30T11:19:40;4.83;;;2.43;;
5559;SDS011;2803;47.916;8.074;2023-04-30T11:22:15;2.63;;;2.17;;
5559;SDS011;2803;47.916;8.074;2023-04-30T11:24:50;3.50;;;2.40;;
5559;SDS011;2803;47.916;8.074;2023-04-30T11:27:19;4.93;;;2.30;;
5559;SDS011;2803;47.916;8.074;2023-04-30T11:29:47;4.57;;;2.40;;
5559;SDS011;2803;47.916;8.074;2023-04-30T11:32:15;3.20;;;2.70;;
5559;SDS011;2803;47.916;8.074;2023-04-30T11:34:44;4.30;;;2.53;;
5559;SDS011;2803;47.916;8.074;2023-04-30T11:37:12;8.20;;;3.00;;
5559;SDS011;2803;47.916;8.074;2023-04-30T11:39:42;4.77;;;2.40;;
5559;SDS011;2803;47.916;8.074;2023-04-30T11:42:08;2.90;;;2.33;;
5559;SDS011;2803;47.916;8.074;2023-04-30T11:44:35;3.77;;;2.13;;
5559;SDS011;2803;47.916;8.074;2023-04-30T11:47:02;3.00;;;2.30;;
5559;SDS011;2803;47.916;8.074;2023-04-30T11:49:30;2.43;;;2.23;;
5559;SDS011;2803;47.916;8.074;2023-04-30T11:51:58;2.07;;;1.73;;
5559;SDS011;2803;47.916;8.074;2023-04-30T11:54:25;3.07;;;2.50;;
5559;SDS011;2803;47.916;8.074;2023-04-30T11:56:52;3.47;;;2.53;;
5559;SDS011;2803;47.916;8.074;2023-04-30T11:59:24;2.80;;;2.30;;
5559;SDS011;2803;47.916;8.074;2023-04-30T12:01:51;3.97;;;2.30;;
5559;SDS011;2803;47.916;8.074;2023-04-30T12:04:19;4.57;;;2.27;;
5559;SDS011;2803;47.916;8.074;2023-04-30T12:06:45;2.67;;;2.00;;
5559;SDS011;2803;47.916;8.074;2023-04-30T12:09:13;6.03;;;3.07;;
5559;SDS011;2803;47.916;8.074;2023-04-30T12:11:40;2.57;;;2.20;;
5559;SDS011;2803;47.916;8.074;2023-04-30T12:14:07;3.70;;;2.03;;
5559;SDS011;2803;47.916;8.074;2023-04-30T12:16:39;2.83;;;2.53;;
5559;SDS011;2803;47.916;8.074;2023-04-30T12:19:08;2.57;;;2.23;;
5559;SDS011;2803;47.916;8.074;2023-04-30T12:21:35;3.93;;;2.43;;
5559;SDS011;2803;47.916;8.074;2023-04-30T12:24:02;2.37;;;1.93;;
5559;SDS011;2803;47.916;8.074;2023-04-30T12:26:38;2.53;;;1.90;;
5559;SDS011;2803;47.916;8.074;2023-04-30T12:29:07;2.43;;;1.90;;
5559;SDS011;2803;47.916;8.074;2023-04-30T12:31:35;2.27;;;2.07;;
5559;SDS011;2803;47.916;8.074;2023-04-30T12:34:02;2.37;;;2.10;;
5559;SDS011;2803;47.916;8.074;2023-04-30T12:36:30;2.20;;;1.93;;
5559;SDS011;2803;47.916;8.074;2023-04-30T12:39:05;2.40;;;2.00;;
5559;SDS011;2803;47.916;8.074;2023-04-30T12:41:35;2.97;;;2.20;;
5559;SDS011;2803;47.916;8.074;2023-04-30T12:44:12;2.13;;;1.93;;
5559;SDS011;2803;47.916;8.074;2023-04-30T12:46:40;7.07;;;2.03;;
5559;SDS011;2803;47.916;8.074;2023-04-30T12:49:07;2.20;;;1.93;;
5559;SDS011;2803;47.916;8.074;2023-04-30T12:51:35;3.37;;;2.30;;
5559;SDS011;2803;47.916;8.074;2023-04-30T12:54:04;2.13;;;1.80;;
5559;SDS011;2803;47.916;8.074;2023-04-30T12:56:31;2.90;;;2.20;;
5559;SDS011;2803;47.916;8.074;2023-04-30T12:58:59;2.10;;;1.90;;
5559;SDS011;2803;47.916;8.074;2023-04-30T13:01:25;3.10;;;2.07;;
5559;SDS011;2803;47.916;8.074;2023-04-30T13:03:52;2.60;;;2.10;;
5559;SDS011;2803;47.916;8.074;2023-04-30T13:06:19;2.70;;;2.00;;
5559;SDS011;2803;47.916;8.074;2023-04-30T13:08:46;1.73;;;1.63;;
5559;SDS011;2803;47.916;8.074;2023-04-30T13:11:13;2.77;;;1.97;;
5559;SDS011;2803;47.916;8.074;2023-04-30T13:13:40;1.70;;;1.60;;
5559;SDS011;2803;47.916;8.074;2023-04-30T13:16:08;2.47;;;2.27;;
5559;SDS011;2803;47.916;8.074;2023-04-30T13:18:35;2.10;;;1.90;;
5559;SDS011;2803;47.916;8.074;2023-04-30T13:21:02;2.43;;;1.83;;
5559;SDS011;2803;47.916;8.074;2023-04-30T13:23:28;2.17;;;1.90;;
5559;SDS011;2803;47.916;8.074;2023-04-30T13:25:55;3.10;;;1.97;;
5559;SDS011;2803;47.916;8.074;2023-04-30T13:28:21;3.67;;;2.00;;
5559;SDS011;2803;47.916;8.074;2023-04-30T13:30:48;3.53;;;1.70;;
5559;SDS011;2803;47.916;8.074;2023-04-30T13:33:16;1.93;;;1.80;;
5559;SDS011;2803;47.916;8.074;2023-04-30T13:35:42;2.80;;;2.20;;
5559;SDS011;2803;47.916;8.074;2023-04-30T13:38:10;6.17;;;2.13;;
5559;SDS011;2803;47.916;8.074;2023-04-30T13:40:37;4.53;;;2.30;;
5559;SDS011;2803;47.916;8.074;2023-04-30T13:43:03;3.10;;;2.50;;
5559;SDS011;2803;47.916;8.074;2023-04-30T13:45:30;6.20;;;2.00;;
5559;SDS011;2803;47.916;8.074;2023-04-30T13:47:56;3.03;;;1.97;;
5559;SDS011;2803;47.916;8.074;2023-04-30T13:50:24;2.23;;;1.80;;
5559;SDS011;2803;47.916;8.074;2023-04-30T13:52:51;3.30;;;2.00;;
5559;SDS011;2803;47.916;8.074;2023-04-30T13:55:18;5.90;;;2.50;;
5559;SDS011;2803;47.916;8.074;2023-04-30T13:57:44;2.03;;;1.83;;
5559;SDS011;2803;47.916;8.074;2023-04-30T14:00:11;2.77;;;2.30;;
5559;SDS011;2803;47.916;8.074;2023-04-30T14:02:39;2.30;;;2.00;;
5559;SDS011;2803;47.916;8.074;2023-04-30T14:05:07;2.77;;;2.20;;
5559;SDS011;2803;47.916;8.074;2023-04-30T14:07:36;2.13;;;1.90;;
5559;SDS011;2803;47.916;8.074;2023-04-30T14:10:02;3.40;;;2.17;;
5559;SDS011;2803;47.916;8.074;2023-04-30T14:12:29;2.20;;;1.93;;
5559;SDS011;2803;47.916;8.074;2023-04-30T14:14:56;4.00;;;2.30;;
5559;SDS011;2803;47.916;8.074;2023-04-30T14:17:23;5.83;;;2.47;;
5559;SDS011;2803;47.916;8.074;2023-04-30T14:19:50;2.40;;;2.20;;
5559;SDS011;2803;47.916;8.074;2023-04-30T14:22:17;3.87;;;2.30;;
5559;SDS011;2803;47.916;8.074;2023-04-30T14:24:45;3.10;;;2.37;;
5559;SDS011;2803;47.916;8.074;2023-04-30T14:27:11;4.33;;;2.57;;
5559;SDS011;2803;47.916;8.074;2023-04-30T14:29:39;3.53;;;2.43;;
5559;SDS011;2803;47.916;8.074;2023-04-30T14:32:05;2.70;;;2.10;;
5559;SDS011;2803;47.916;8.074;2023-04-30T14:34:33;2.43;;;2.23;;
5559;SDS011;2803;47.916;8.074;2023-04-30T14:37:01;2.60;;;2.40;;
5559;SDS011;2803;47.916;8.074;2023-04-30T14:39:27;3.87;;;2.87;;
5559;SDS011;2803;47.916;8.074;2023-04-30T14:41:55;3.03;;;2.13;;
5559;SDS011;2803;47.916;8.074;2023-04-30T14:44:22;3.63;;;2.30;;
5559;SDS011;2803;47.916;8.074;2023-04-30T14:46:49;4.83;;;2.67;;
5559;SDS011;2803;47.916;8.074;2023-04-30T14:49:16;2.93;;;2.17;;
5559;SDS011;2803;47.916;8.074;2023-04-30T14:51:42;2.47;;;2.27;;
5559;SDS011;2803;47.916;8.074;2023-04-30T14:54:09;3.97;;;2.50;;
5559;SDS011;2803;47.916;8.074;2023-04-30T14:56:36;2.43;;;1.93;;
5559;SDS011;2803;47.916;8.074;2023-04-30T14:59:05;2.80;;;2.17;;
5559;SDS011;2803;47.916;8.074;2023-04-30T15:01:32;2.33;;;1.90;;
5559;SDS011;2803;47.916;8.074;2023-04-30T15:03:58;8.53;;;2.17;;
5559;SDS011;2803;47.916;8.074;2023-04-30T15:06:26;5.37;;;2.43;;
5559;SDS011;2803;47.916;8.074;2023-04-30T15:08:52;3.17;;;2.40;;
5559;SDS011;2803;47.916;8.074;2023-04-30T15:11:19;2.20;;;2.00;;
5559;SDS011;2803;47.916;8.074;2023-04-30T15:13:46;2.63;;;2.20;;
5559;SDS011;2803;47.916;8.074;2023-04-30T15:16:14;4.40;;;2.43;;
5559;SDS011;2803;47.916;8.074;2023-04-30T15:18:41;5.37;;;1.90;;